createdAt,value
2023-03-06T00:00:24.788Z,20.30
2023-03-06T00:02:54.992Z,20.27
2023-03-06T00:05:23.862Z,20.27
2023-03-06T00:07:52.363Z,20.26
2023-03-06T00:10:23.561Z,20.23
2023-03-06T00:12:53.006Z,20.22
2023-03-06T00:15:21.551Z,20.21
2023-03-06T00:17:49.994Z,20.22
2023-03-06T00:20:20.729Z,20.19
2023-03-06T00:22:49.782Z,20.19
2023-03-06T00:25:20.935Z,20.17
2023-03-06T00:27:50.111Z,20.16
2023-03-06T00:30:21.472Z,20.15
2023-03-06T00:32:50.509Z,20.14
2023-03-06T00:35:20.607Z,20.13
2023-03-06T00:37:49.339Z,20.12
2023-03-06T00:40:20.273Z,20.11
2023-03-06T00:42:49.043Z,20.10
2023-03-06T00:45:17.520Z,20.09
2023-03-06T00:47:46.618Z,20.09
2023-03-06T00:50:16.538Z,20.08
2023-03-06T00:52:46.275Z,20.07
2023-03-06T00:55:14.640Z,20.07
2023-03-06T00:57:43.103Z,20.05
2023-03-06T01:00:14.222Z,20.05
2023-03-06T01:02:43.218Z,20.04
2023-03-06T01:05:14.387Z,20.03
2023-03-06T01:07:42.924Z,20.02
2023-03-06T01:10:13.674Z,20.01
2023-03-06T01:12:42.603Z,19.99
2023-03-06T01:15:13.647Z,19.99
2023-03-06T01:17:42.146Z,19.99
2023-03-06T01:20:14.243Z,19.99
2023-03-06T01:22:43.672Z,19.98
2023-03-06T01:25:13.728Z,19.96
2023-03-06T01:27:42.165Z,19.95
2023-03-06T01:30:13.520Z,19.96
2023-03-06T01:32:42.058Z,19.95
2023-03-06T01:35:11.383Z,19.94
2023-03-06T01:37:40.667Z,19.94
2023-03-06T01:40:11.706Z,19.92
2023-03-06T01:42:41.574Z,19.92
2023-03-06T01:45:49.776Z,19.91
2023-03-06T01:48:21.393Z,19.92
2023-03-06T01:50:50.709Z,19.91
2023-03-06T01:53:20.242Z,19.91
2023-03-06T01:55:48.855Z,19.89
2023-03-06T01:58:19.131Z,19.89
2023-03-06T02:00:47.673Z,19.88
2023-03-06T02:03:22.376Z,19.88
2023-03-06T02:05:50.972Z,19.87
2023-03-06T02:08:22.729Z,19.88
2023-03-06T02:10:59.768Z,19.86
2023-03-06T02:13:28.282Z,19.86
2023-03-06T02:15:57.323Z,19.86
2023-03-06T02:18:27.667Z,19.85
2023-03-06T02:20:58.955Z,19.84
2023-03-06T02:23:34.629Z,19.83
2023-03-06T02:26:05.638Z,19.83
2023-03-06T02:28:34.255Z,19.83
2023-03-06T02:31:02.860Z,19.83
2023-03-06T02:33:31.380Z,19.83
2023-03-06T02:36:02.533Z,19.83
2023-03-06T02:38:36.075Z,19.82
2023-03-06T02:41:09.085Z,19.83
2023-03-06T02:43:39.903Z,19.83
2023-03-06T02:46:08.886Z,19.83
2023-03-06T02:48:37.617Z,19.83
2023-03-06T02:51:06.408Z,19.81
2023-03-06T02:53:34.792Z,19.82
2023-03-06T02:56:03.262Z,19.81
2023-03-06T02:58:33.141Z,19.82
2023-03-06T03:01:01.689Z,19.80
2023-03-06T03:03:33.063Z,19.80
2023-03-06T03:06:02.069Z,19.81
2023-03-06T03:08:34.319Z,19.79
2023-03-06T03:11:05.408Z,19.80
2023-03-06T03:13:41.563Z,19.80
2023-03-06T03:16:16.272Z,19.78
2023-03-06T03:18:47.711Z,19.78
2023-03-06T03:21:18.488Z,19.77
2023-03-06T03:23:48.772Z,19.75
2023-03-06T03:26:19.572Z,19.77
2023-03-06T03:29:18.740Z,19.76
2023-03-06T03:31:47.268Z,19.76
2023-03-06T03:34:16.095Z,19.74
2023-03-06T03:36:45.311Z,19.76
2023-03-06T03:39:14.973Z,19.75
2023-03-06T03:41:44.378Z,19.75
2023-03-06T03:44:14.241Z,19.75
2023-03-06T03:46:44.143Z,19.75
2023-03-06T03:49:17.895Z,19.75
2023-03-06T03:51:46.439Z,19.75
2023-03-06T03:54:15.112Z,19.73
2023-03-06T03:56:46.932Z,19.74
2023-03-06T03:59:21.455Z,19.72
2023-03-06T04:02:04.720Z,19.71
2023-03-06T04:04:37.369Z,19.71
2023-03-06T04:07:06.229Z,19.70
2023-03-06T04:09:34.731Z,19.71
2023-03-06T04:12:03.648Z,19.71
2023-03-06T04:14:32.996Z,19.72
2023-03-06T04:17:03.065Z,19.70
2023-03-06T04:19:31.582Z,19.70
2023-03-06T04:22:02.281Z,19.71
2023-03-06T04:24:33.217Z,19.70
2023-03-06T04:27:02.306Z,19.70
2023-03-06T04:29:30.675Z,19.70
2023-03-06T04:31:59.121Z,19.69
2023-03-06T04:34:29.406Z,19.69
2023-03-06T04:36:58.655Z,19.68
2023-03-06T04:39:27.532Z,19.67
2023-03-06T04:41:56.503Z,19.67
2023-03-06T04:44:25.258Z,19.67
2023-03-06T04:46:53.729Z,19.67
2023-03-06T04:49:22.113Z,19.66
2023-03-06T04:51:51.868Z,19.66
2023-03-06T04:54:20.269Z,19.66
2023-03-06T04:56:48.636Z,19.65
2023-03-06T04:59:17.029Z,19.66
2023-03-06T05:01:45.474Z,19.65
2023-03-06T05:04:13.865Z,19.65
2023-03-06T05:06:42.259Z,19.65
2023-03-06T05:09:11.983Z,19.64
2023-03-06T05:11:40.353Z,19.64
2023-03-06T05:14:08.811Z,19.64
2023-03-06T05:16:38.546Z,19.65
2023-03-06T05:19:07.030Z,19.64
2023-03-06T05:21:35.409Z,19.64
2023-03-06T05:24:03.906Z,19.64
2023-03-06T05:26:34.814Z,19.64
2023-03-06T05:29:03.206Z,19.64
2023-03-06T05:31:31.706Z,19.62
2023-03-06T05:34:00.723Z,19.64
2023-03-06T05:36:29.145Z,19.64
2023-03-06T05:38:57.636Z,19.62
2023-03-06T05:41:26.103Z,19.62
2023-03-06T05:43:56.885Z,19.61
2023-03-06T05:46:25.814Z,19.62
2023-03-06T05:48:57.388Z,19.65
2023-03-06T05:51:26.606Z,19.72
2023-03-06T05:53:55.032Z,19.80
2023-03-06T05:56:23.608Z,19.84
2023-03-06T05:58:52.148Z,19.88
2023-03-06T06:01:22.355Z,19.94
2023-03-06T06:03:50.945Z,19.98
2023-03-06T06:06:19.561Z,19.99
2023-03-06T06:08:48.003Z,19.95
2023-03-06T06:11:18.249Z,19.92
2023-03-06T06:13:46.645Z,19.92
2023-03-06T06:16:18.869Z,19.93
2023-03-06T06:18:48.880Z,19.94
2023-03-06T06:21:17.297Z,20.01
2023-03-06T06:23:46.214Z,20.08
2023-03-06T06:26:16.386Z,20.11
2023-03-06T06:28:44.791Z,20.17
2023-03-06T06:31:14.218Z,20.19
2023-03-06T06:33:43.263Z,20.22
2023-03-06T06:36:20.637Z,20.23
2023-03-06T06:38:49.601Z,20.24
2023-03-06T06:44:08.705Z,20.25
2023-03-06T06:47:20.883Z,20.25
2023-03-06T06:49:27.859Z,20.24
2023-03-06T06:51:57.696Z,20.21
2023-03-06T06:54:26.311Z,20.20
2023-03-06T06:56:54.773Z,20.19
2023-03-06T06:59:24.074Z,20.21
2023-03-06T07:01:53.533Z,20.20
2023-03-06T07:04:22.101Z,20.21
2023-03-06T07:06:50.507Z,20.22
2023-03-06T07:09:20.400Z,20.24
2023-03-06T07:11:49.294Z,20.23
2023-03-06T07:14:17.827Z,20.25
2023-03-06T07:16:46.225Z,20.25
2023-03-06T07:19:15.099Z,20.26
2023-03-06T07:21:43.567Z,20.27
2023-03-06T07:24:12.140Z,20.28
2023-03-06T07:26:41.919Z,20.27
2023-03-06T07:29:10.332Z,20.27
2023-03-06T07:31:38.844Z,20.27
2023-03-06T07:34:07.581Z,20.28
2023-03-06T07:36:36.282Z,20.27
2023-03-06T07:39:05.123Z,20.29
2023-03-06T07:41:33.616Z,20.28
2023-03-06T07:44:03.703Z,20.29
2023-03-06T07:46:32.292Z,20.27
2023-03-06T07:49:00.640Z,20.29
2023-03-06T07:51:29.094Z,20.29
2023-03-06T07:53:57.509Z,20.29
2023-03-06T07:56:26.355Z,20.31
2023-03-06T07:58:56.136Z,20.31
2023-03-06T08:01:27.068Z,20.31
2023-03-06T08:03:55.639Z,20.30
2023-03-06T08:06:25.817Z,20.29
2023-03-06T08:08:55.828Z,20.29
2023-03-06T08:11:26.983Z,20.28
2023-03-06T08:13:56.348Z,20.24
2023-03-06T08:16:28.981Z,20.19
2023-03-06T08:18:58.230Z,20.16
2023-03-06T08:21:28.943Z,20.14
2023-03-06T08:23:57.587Z,20.08
2023-03-06T08:26:28.390Z,20.08
2023-03-06T08:28:58.988Z,20.06
2023-03-06T08:31:32.348Z,20.05
2023-03-06T08:34:02.853Z,20.04
2023-03-06T08:36:31.303Z,20.02
2023-03-06T08:39:00.451Z,20.01
2023-03-06T08:41:29.254Z,19.98
2023-03-06T08:43:57.676Z,19.99
2023-03-06T08:46:27.783Z,19.98
2023-03-06T08:48:58.038Z,19.99
2023-03-06T08:51:27.907Z,20.00
2023-03-06T08:53:57.611Z,19.99
2023-03-06T08:56:28.071Z,19.98
2023-03-06T08:58:58.077Z,19.98
2023-03-06T09:01:28.910Z,19.98
2023-03-06T09:04:00.688Z,19.96
2023-03-06T09:06:31.885Z,19.98
2023-03-06T09:09:00.929Z,19.97
2023-03-06T09:11:30.210Z,19.98
2023-03-06T09:13:59.146Z,19.99
2023-03-06T09:16:28.118Z,19.98
2023-03-06T09:18:58.724Z,20.01
2023-03-06T09:21:28.600Z,19.98
2023-03-06T09:23:57.618Z,19.97
2023-03-06T09:26:39.666Z,19.98
2023-03-06T09:29:13.512Z,19.98
2023-03-06T09:31:41.928Z,19.97
2023-03-06T09:34:11.710Z,19.97
2023-03-06T09:36:56.000Z,19.98
2023-03-06T09:39:26.507Z,19.97
2023-03-06T09:41:56.748Z,19.97
2023-03-06T09:44:27.726Z,19.97
2023-03-06T09:47:34.029Z,19.97
2023-03-06T09:50:15.004Z,19.96
2023-03-06T09:52:53.915Z,19.97
2023-03-06T09:55:27.086Z,19.97
2023-03-06T09:57:59.817Z,19.96
2023-03-06T10:00:35.070Z,19.96
2023-03-06T10:03:16.809Z,19.95
2023-03-06T10:05:49.968Z,19.97
2023-03-06T10:08:24.937Z,19.97
2023-03-06T10:10:59.517Z,19.97
2023-03-06T10:13:33.380Z,19.97
2023-03-06T10:16:08.239Z,19.93
2023-03-06T10:18:38.977Z,19.95
2023-03-06T10:21:24.757Z,19.94
2023-03-06T10:23:55.640Z,19.96
2023-03-06T10:26:26.769Z,19.96
2023-03-06T10:29:09.967Z,19.95
2023-03-06T10:31:41.003Z,19.95
2023-03-06T10:34:21.768Z,19.95
2023-03-06T10:36:52.010Z,19.96
2023-03-06T10:39:22.241Z,19.95
2023-03-06T10:41:51.193Z,19.94
2023-03-06T10:44:22.296Z,19.91
2023-03-06T10:46:52.655Z,19.94
2023-03-06T10:49:33.705Z,19.94
2023-03-06T10:52:06.776Z,19.93
2023-03-06T10:54:37.167Z,19.92
2023-03-06T10:57:27.230Z,19.91
2023-03-06T10:59:57.166Z,19.91
2023-03-06T11:02:31.393Z,19.90
2023-03-06T11:05:01.705Z,19.88
2023-03-06T11:07:32.606Z,19.88
2023-03-06T11:10:07.803Z,19.89
2023-03-06T11:12:37.745Z,19.88
2023-03-06T11:15:17.370Z,19.85
2023-03-06T11:17:52.180Z,19.78
2023-03-06T11:20:23.500Z,19.71
2023-03-06T11:22:57.805Z,19.68
2023-03-06T11:25:31.547Z,19.66
2023-03-06T11:28:04.514Z,19.62
2023-03-06T11:30:39.802Z,19.62
2023-03-06T11:33:19.824Z,19.60
2023-03-06T11:35:55.194Z,19.60
2023-03-06T11:38:33.832Z,19.60
2023-03-06T11:41:08.241Z,19.60
2023-03-06T11:43:49.766Z,19.59
2023-03-06T11:46:24.206Z,19.60
2023-03-06T11:48:55.584Z,19.59
2023-03-06T11:51:27.383Z,19.61
2023-03-06T11:54:00.854Z,19.62
2023-03-06T11:56:35.472Z,19.65
2023-03-06T11:59:25.088Z,19.65
2023-03-06T12:02:01.959Z,19.66
2023-03-06T12:04:39.185Z,19.71
2023-03-06T12:07:20.570Z,19.72
2023-03-06T12:09:56.198Z,19.73
2023-03-06T12:12:51.681Z,19.75
2023-03-06T12:15:45.523Z,19.75
2023-03-06T12:18:27.569Z,19.77
2023-03-06T12:21:04.181Z,19.77
2023-03-06T12:23:55.412Z,19.77
2023-03-06T12:26:47.485Z,19.78
2023-03-06T12:29:29.301Z,19.78
2023-03-06T12:32:17.675Z,19.80
2023-03-06T12:35:01.063Z,19.78
2023-03-06T12:37:41.288Z,19.76
2023-03-06T12:40:41.237Z,19.78
2023-03-06T12:44:00.490Z,19.78
2023-03-06T12:46:30.549Z,19.80
2023-03-06T12:49:06.166Z,19.81
2023-03-06T12:51:35.394Z,19.80
2023-03-06T12:54:04.597Z,19.81
2023-03-06T12:56:34.587Z,19.81
2023-03-06T12:59:03.224Z,19.82
2023-03-06T13:02:07.438Z,19.82
2023-03-06T13:04:56.765Z,19.83
2023-03-06T13:07:36.558Z,19.82
2023-03-06T13:10:12.402Z,19.78
2023-03-06T13:12:50.882Z,19.76
2023-03-06T13:15:41.846Z,19.73
2023-03-06T13:18:57.889Z,19.72
2023-03-06T13:22:02.291Z,19.70
2023-03-06T13:24:33.582Z,19.69
2023-03-06T13:27:07.683Z,19.68
2023-03-06T13:29:59.659Z,19.67
2023-03-06T13:32:38.363Z,19.66
2023-03-06T13:35:49.056Z,19.65
2023-03-06T13:38:44.505Z,19.65
2023-03-06T13:41:41.285Z,19.64
2023-03-06T13:44:43.837Z,19.63
2023-03-06T13:47:32.128Z,19.63
2023-03-06T13:50:01.070Z,19.62
2023-03-06T13:52:40.342Z,19.62
2023-03-06T13:55:21.543Z,19.60
2023-03-06T13:58:12.956Z,19.60
2023-03-06T14:01:06.036Z,19.60
2023-03-06T14:04:01.397Z,19.60
2023-03-06T14:06:52.202Z,19.60
2023-03-06T14:09:27.775Z,19.59
2023-03-06T14:12:00.463Z,19.59
2023-03-06T14:14:36.366Z,19.60
2023-03-06T14:17:06.276Z,19.62
2023-03-06T14:19:39.438Z,19.70
2023-03-06T14:22:17.396Z,19.77
2023-03-06T14:24:55.097Z,19.82
2023-03-06T14:27:39.231Z,19.87
2023-03-06T14:30:14.335Z,19.91
2023-03-06T14:32:42.965Z,19.92
2023-03-06T14:35:27.427Z,19.94
2023-03-06T14:37:59.943Z,19.96
2023-03-06T14:40:35.697Z,19.97
2023-03-06T14:43:21.783Z,19.97
2023-03-06T14:45:57.317Z,20.01
2023-03-06T14:48:27.665Z,19.99
2023-03-06T14:50:58.062Z,20.06
2023-03-06T14:53:29.968Z,20.09
2023-03-06T14:56:01.076Z,20.10
2023-03-06T14:58:34.020Z,20.14
2023-03-06T15:01:07.499Z,20.19
2023-03-06T15:03:45.194Z,20.23
2023-03-06T15:06:18.677Z,20.25
2023-03-06T15:08:49.387Z,20.26
2023-03-06T15:11:17.790Z,20.27
2023-03-06T15:14:01.336Z,20.29
2023-03-06T15:16:31.943Z,20.31
2023-03-06T15:19:01.655Z,20.36
2023-03-06T15:21:35.327Z,20.39
2023-03-06T15:24:23.781Z,20.39
2023-03-06T15:26:56.338Z,20.37
2023-03-06T15:29:24.923Z,20.37
2023-03-06T15:32:14.519Z,20.41
2023-03-06T15:34:43.315Z,20.42
2023-03-06T15:37:27.531Z,20.44
2023-03-06T15:40:06.656Z,20.42
2023-03-06T15:42:35.913Z,20.43
2023-03-06T15:45:15.802Z,20.46
2023-03-06T15:47:46.423Z,20.48
2023-03-06T15:50:17.544Z,20.53
2023-03-06T15:52:47.259Z,20.55
2023-03-06T15:55:17.947Z,20.56
2023-03-06T15:57:50.367Z,20.56
2023-03-06T16:00:27.702Z,20.52
2023-03-06T16:02:58.863Z,20.52
2023-03-06T16:05:28.388Z,20.51
2023-03-06T16:07:56.953Z,20.53
2023-03-06T16:10:28.519Z,20.55
2023-03-06T16:13:00.416Z,20.61
2023-03-06T16:15:29.069Z,20.62
2023-03-06T16:17:59.752Z,20.67
2023-03-06T16:20:30.339Z,20.69
2023-03-06T16:22:58.774Z,20.68
2023-03-06T16:25:28.871Z,20.68
2023-03-06T16:27:59.058Z,20.66
2023-03-06T16:30:29.499Z,20.70
2023-03-06T16:33:01.088Z,20.75
2023-03-06T16:35:29.655Z,20.79
2023-03-06T16:37:58.702Z,20.79
2023-03-06T16:40:29.612Z,20.81
2023-03-06T16:42:58.070Z,20.78
2023-03-06T16:45:26.527Z,20.80
2023-03-06T16:47:55.102Z,20.80
2023-03-06T16:50:27.541Z,20.82
2023-03-06T16:52:57.724Z,20.84
2023-03-06T16:55:28.011Z,20.86
2023-03-06T16:57:56.507Z,20.86
2023-03-06T17:00:28.169Z,20.90
2023-03-06T17:02:57.497Z,20.92
2023-03-06T17:05:27.581Z,20.95
2023-03-06T17:07:56.958Z,20.96
2023-03-06T17:10:27.143Z,20.94
2023-03-06T17:12:56.737Z,20.97
2023-03-06T17:15:25.286Z,20.99
2023-03-06T17:17:53.977Z,20.96
2023-03-06T17:20:23.637Z,20.97
2023-03-06T17:22:53.376Z,21.00
2023-03-06T17:25:21.832Z,21.01
2023-03-06T17:27:50.271Z,20.97
2023-03-06T17:30:18.800Z,20.93
2023-03-06T17:32:47.274Z,20.96
2023-03-06T17:35:15.738Z,20.95
2023-03-06T17:37:44.132Z,20.96
2023-03-06T17:40:16.489Z,20.94
2023-03-06T17:42:44.944Z,20.91
2023-03-06T17:45:13.805Z,20.88
2023-03-06T17:47:42.285Z,20.84
2023-03-06T17:50:11.954Z,20.80
2023-03-06T17:52:40.316Z,20.76
2023-03-06T17:55:09.588Z,20.72
2023-03-06T17:57:39.510Z,20.69
2023-03-06T18:00:10.756Z,20.66
2023-03-06T18:02:45.343Z,20.63
2023-03-06T18:05:13.890Z,20.61
2023-03-06T18:07:42.565Z,20.58
2023-03-06T18:10:11.716Z,20.57
2023-03-06T18:12:41.459Z,20.55
2023-03-06T18:15:10.658Z,20.53
2023-03-06T18:17:39.508Z,20.51
2023-03-06T18:20:08.703Z,20.48
2023-03-06T18:22:37.118Z,20.47
2023-03-06T18:25:06.141Z,20.46
2023-03-06T18:27:34.716Z,20.45
2023-03-06T18:30:05.738Z,20.44
2023-03-06T18:32:34.121Z,20.45
2023-03-06T18:35:02.633Z,20.46
2023-03-06T18:37:31.157Z,20.46
2023-03-06T18:40:02.265Z,20.40
2023-03-06T18:42:30.740Z,20.28
2023-03-06T18:44:59.158Z,20.17
2023-03-06T18:47:28.941Z,20.07
2023-03-06T18:49:57.423Z,20.01
2023-03-06T18:52:25.943Z,19.94
2023-03-06T18:54:54.321Z,19.83
2023-03-06T18:57:22.702Z,19.76
2023-03-06T18:59:51.138Z,19.70
2023-03-06T19:02:19.557Z,19.67
2023-03-06T19:04:49.377Z,19.66
2023-03-06T19:07:18.154Z,19.66
2023-03-06T19:09:49.050Z,19.70
2023-03-06T19:12:17.664Z,19.73
2023-03-06T19:14:46.097Z,19.76
2023-03-06T19:17:14.522Z,19.78
2023-03-06T19:19:42.969Z,19.80
2023-03-06T19:22:12.716Z,19.80
2023-03-06T19:24:41.126Z,19.80
2023-03-06T19:27:11.379Z,19.81
2023-03-06T19:29:39.826Z,19.84
2023-03-06T19:32:08.455Z,19.87
2023-03-06T19:34:36.987Z,19.89
2023-03-06T19:37:05.505Z,19.90
2023-03-06T19:39:35.273Z,19.89
2023-03-06T19:42:04.540Z,19.88
2023-03-06T19:44:32.991Z,19.86
2023-03-06T19:47:01.458Z,19.83
2023-03-06T19:49:30.032Z,19.81
2023-03-06T19:51:58.466Z,19.79
2023-03-06T19:54:26.935Z,19.75
2023-03-06T19:56:56.847Z,19.74
2023-03-06T19:59:25.250Z,19.76
2023-03-06T20:01:53.958Z,19.81
2023-03-06T20:04:23.868Z,19.83
2023-03-06T20:06:52.820Z,19.85
2023-03-06T20:09:21.313Z,19.86
2023-03-06T20:11:49.759Z,19.86
2023-03-06T20:14:19.938Z,19.85
2023-03-06T20:16:48.458Z,19.84
2023-03-06T20:19:17.615Z,19.81
2023-03-06T20:21:46.150Z,19.79
2023-03-06T20:24:17.771Z,19.80
2023-03-06T20:26:48.874Z,19.80
2023-03-06T20:29:18.742Z,19.83
2023-03-06T20:31:47.210Z,19.88
2023-03-06T20:34:16.445Z,19.89
2023-03-06T20:36:44.916Z,19.88
2023-03-06T20:39:15.774Z,19.88
2023-03-06T20:41:45.234Z,19.86
2023-03-06T20:44:15.875Z,19.85
2023-03-06T20:46:46.319Z,19.87
2023-03-06T20:49:15.102Z,19.93
2023-03-06T20:51:43.638Z,20.03
2023-03-06T20:54:15.171Z,20.11
2023-03-06T20:56:45.986Z,20.17
2023-03-06T20:59:15.175Z,20.19
2023-03-06T21:01:47.806Z,20.23
2023-03-06T21:04:16.876Z,20.23
2023-03-06T21:06:46.860Z,20.23
2023-03-06T21:09:17.147Z,20.22
2023-03-06T21:11:46.326Z,20.22
2023-03-06T21:14:15.171Z,20.21
2023-03-06T21:16:45.457Z,20.21
2023-03-06T21:19:14.217Z,20.20
2023-03-06T21:21:42.739Z,20.16
2023-03-06T21:24:11.590Z,20.13
2023-03-06T21:26:40.035Z,20.12
2023-03-06T21:29:08.487Z,20.10
2023-03-06T21:31:37.136Z,20.08
2023-03-06T21:34:07.046Z,20.06
2023-03-06T21:36:35.538Z,20.04
2023-03-06T21:39:06.189Z,20.02
2023-03-06T21:41:34.917Z,19.98
2023-03-06T21:44:05.555Z,19.97
2023-03-06T21:46:35.188Z,19.95
2023-03-06T21:49:05.378Z,19.93
2023-03-06T21:51:35.491Z,19.92
2023-03-06T21:54:04.528Z,19.95
2023-03-06T21:56:33.432Z,19.98
2023-03-06T21:59:02.173Z,20.02
2023-03-06T22:01:30.620Z,20.04
2023-03-06T22:04:00.012Z,20.07
2023-03-06T22:06:30.554Z,20.10
2023-03-06T22:09:01.234Z,20.10
2023-03-06T22:11:34.146Z,20.11
2023-03-06T22:14:02.723Z,20.11
2023-03-06T22:16:31.496Z,20.12
2023-03-06T22:19:00.378Z,20.12
2023-03-06T22:21:28.913Z,20.13
2023-03-06T22:23:58.753Z,20.11
2023-03-06T22:26:29.894Z,20.09
2023-03-06T22:28:58.456Z,20.05
2023-03-06T22:31:29.003Z,20.01
2023-03-06T22:33:59.059Z,19.98
2023-03-06T22:36:28.398Z,19.96
2023-03-06T22:38:58.964Z,19.95
2023-03-06T22:41:29.393Z,19.93
2023-03-06T22:43:59.231Z,19.91
2023-03-06T22:46:28.387Z,19.90
2023-03-06T22:48:57.317Z,19.88
2023-03-06T22:51:26.974Z,19.86
2023-03-06T22:53:55.517Z,19.85
2023-03-06T22:56:24.021Z,19.84
2023-03-06T22:58:53.811Z,19.82
2023-03-06T23:01:24.942Z,19.80
2023-03-06T23:03:55.029Z,19.77
2023-03-06T23:06:25.222Z,19.77
2023-03-06T23:08:55.699Z,19.74
2023-03-06T23:11:25.359Z,19.74
2023-03-06T23:14:14.238Z,19.72
2023-03-06T23:17:01.055Z,19.70
2023-03-06T23:19:50.150Z,19.69
2023-03-06T23:22:37.320Z,19.68
2023-03-06T23:25:24.531Z,19.67
2023-03-06T23:27:52.897Z,19.65
2023-03-06T23:30:23.075Z,19.64
2023-03-06T23:32:51.526Z,19.64
2023-03-06T23:35:20.177Z,19.63
2023-03-06T23:37:48.586Z,19.63
2023-03-06T23:40:17.488Z,19.62
2023-03-06T23:42:45.867Z,19.61
2023-03-06T23:45:14.226Z,19.60
2023-03-06T23:47:43.980Z,19.60
2023-03-06T23:50:13.129Z,19.59
2023-03-06T23:52:41.841Z,19.59
2023-03-06T23:55:11.035Z,19.57
2023-03-06T23:57:39.450Z,19.57
